Time;durP1;ratioP1;P1;durP2;ratioP2;P2;SDS_P1;SDS_P2;PMS_P1;PMS_P2;Temp;Humidity;BMP_temperature;BMP_pressure;BME280_temperature;BME280_humidity;BME280_pressure;Samples;Min_cycle;Max_cycle;Signal;HPM_P1;HPM_P2
2022/01/31 00:08:20;;;;;;;5.10;2.03;;;;;;;20.89;44.58;100187.41;20494382;28;98427;-62
2022/01/31 00:18:51;;;;;;;4.03;2.00;;;;;;;20.87;44.51;100184.06;20489922;28;99938;-62
2022/01/31 00:28:55;;;;;;;4.35;1.75;;;;;;;20.83;44.39;100183.47;20465449;28;98144;-62
2022/01/31 00:39:21;;;;;;;4.05;1.65;;;;;;;20.80;44.54;100202.16;20497392;28;101211;-62
2022/01/31 00:50:07;;;;;;;3.00;1.90;;;;;;;20.74;44.39;100223.69;20515332;28;100665;-62
2022/01/31 01:00:30;;;;;;;3.53;1.80;;;;;;;20.73;44.57;100238.63;20498421;28;98608;-62
2022/01/31 01:11:13;;;;;;;5.93;1.87;;;;;;;20.74;44.86;100250.00;20515610;28;100627;-63
2022/01/31 01:21:57;;;;;;;2.17;1.55;;;;;;;20.70;44.87;100238.84;20515722;28;97371;-62
2022/01/31 01:31:57;;;;;;;4.20;1.77;;;;;;;20.67;45.12;100220.63;20516296;28;100308;-63
2022/01/31 01:42:22;;;;;;;5.07;1.45;;;;;;;20.66;45.14;100199.72;20549700;28;97949;-63
2022/01/31 01:52:46;;;;;;;3.30;1.55;;;;;;;20.60;44.93;100167.69;20552589;28;98055;-63
2022/01/31 02:02:55;;;;;;;2.83;1.52;;;;;;;20.62;44.73;100152.59;20543662;28;98121;-63
2022/01/31 02:13:51;;;;;;;3.00;1.60;;;;;;;20.58;45.08;100129.28;20538980;28;99868;-63
2022/01/31 02:24:33;;;;;;;2.42;1.48;;;;;;;20.55;44.86;100125.09;20538413;28;97912;-63
2022/01/31 02:35:04;;;;;;;2.80;1.40;;;;;;;20.54;44.92;100147.09;20544448;28;97796;-63
2022/01/31 02:45:30;;;;;;;4.78;1.65;;;;;;;20.54;44.97;100139.19;20548986;28;97643;-63
2022/01/31 02:55:50;;;;;;;3.55;1.45;;;;;;;20.53;44.62;100126.19;20558297;28;97561;-63
2022/01/31 03:06:16;;;;;;;3.72;1.67;;;;;;;20.48;44.38;100100.22;20559063;28;101139;-62
2022/01/31 03:27:33;;;;;;;5.85;1.60;;;;;;;20.46;44.23;100107.44;20541368;28;97692;-62
2022/01/31 03:38:17;;;;;;;3.30;1.58;;;;;;;20.46;44.31;100089.03;20554052;28;97681;-63
2022/01/31 03:48:37;;;;;;;3.75;1.50;;;;;;;20.45;44.55;100082.91;20535797;28;97201;-63
2022/01/31 03:59:15;;;;;;;5.18;1.38;;;;;;;20.43;44.63;100086.63;20508984;28;97835;-62
2022/01/31 04:09:40;;;;;;;4.30;1.63;;;;;;;20.45;44.73;100063.66;20543364;28;98730;-63
2022/01/31 04:41:44;;;;;;;3.35;1.40;;;;;;;20.41;44.29;100042.03;20543328;28;100502;-63
2022/01/31 04:52:08;;;;;;;2.17;1.40;;;;;;;20.41;44.19;100034.16;20536779;28;97329;-63
2022/01/31 05:02:59;;;;;;;4.00;1.70;;;;;;;20.39;44.21;100001.03;20528575;28;100425;-63
2022/01/31 05:13:38;;;;;;;4.47;1.52;;;;;;;20.38;43.89;99965.19;20528099;28;99517;-62
2022/01/31 05:24:02;;;;;;;4.30;1.40;;;;;;;20.42;43.29;99999.00;20545796;28;98486;-63
2022/01/31 05:35:00;;;;;;;5.00;1.33;;;;;;;20.59;44.83;99973.97;20473213;28;102074;-63
2022/01/31 05:45:08;;;;;;;3.35;1.38;;;;;;;20.75;45.91;99947.28;20522505;28;97689;-62
2022/01/31 05:55:52;;;;;;;6.32;1.40;;;;;;;20.85;45.00;99935.97;20498171;28;97469;-62
2022/01/31 06:06:19;;;;;;;3.05;1.10;;;;;;;20.95;45.75;99947.41;20535793;28;100164;-62
2022/01/31 06:16:30;;;;;;;4.57;1.83;;;;;;;21.03;44.63;99941.50;20534859;28;98544;-62
2022/01/31 06:27:27;;;;;;;12.75;2.75;;;;;;;20.73;39.04;99935.22;20542520;28;97761;-62
2022/01/31 06:48:56;;;;;;;11.85;2.42;;;;;;;21.05;42.74;99914.06;20511806;28;98153;-63
2022/01/31 06:59:23;;;;;;;20.03;3.10;;;;;;;20.87;38.99;99884.06;20536590;28;103377;-63
2022/01/31 07:10:19;;;;;;;9.10;2.25;;;;;;;21.03;40.99;99888.84;20553516;28;98635;-62
2022/01/31 07:20:34;;;;;;;14.88;2.90;;;;;;;21.11;41.26;99887.22;20516848;28;100683;-63
2022/01/31 07:30:59;;;;;;;16.73;4.25;;;;;;;21.22;42.56;99870.53;20532444;28;100766;-63
2022/01/31 07:51:58;;;;;;;24.48;5.32;;;;;;;21.34;41.83;99823.03;20479810;28;99360;-63
2022/01/31 08:24:31;;;;;;;14.48;4.22;;;;;;;21.37;41.31;99820.97;20544200;28;98174;-63
2022/01/31 08:45:24;;;;;;;17.83;5.10;;;;;;;21.39;41.68;99805.03;20546764;28;98219;-63
2022/01/31 09:06:52;;;;;;;17.42;6.65;;;;;;;21.42;41.70;99779.25;20500880;28;98241;-62
2022/01/31 09:17:24;;;;;;;14.90;6.32;;;;;;;21.42;41.84;99771.38;20545610;28;97951;-63
2022/01/31 09:27:26;;;;;;;14.73;6.55;;;;;;;21.39;42.39;99776.06;20517009;28;98730;-63
2022/01/31 09:38:03;;;;;;;21.45;6.82;;;;;;;21.36;41.60;99742.09;20506481;28;97891;-61
2022/01/31 09:48:33;;;;;;;18.50;7.30;;;;;;;21.35;42.41;99716.72;20532068;28;100352;-64
2022/01/31 09:58:54;;;;;;;17.58;8.02;;;;;;;21.33;42.24;99680.00;20504556;28;98811;-63
2022/01/31 10:31:16;;;;;;;22.10;8.10;;;;;;;21.35;43.03;99624.53;20540687;28;97589;-63
2022/01/31 10:52:34;;;;;;;18.05;8.43;;;;;;;21.36;42.80;99587.56;20515159;28;99517;-63
2022/01/31 11:13:34;;;;;;;22.92;8.40;;;;;;;21.41;43.36;99532.66;20482939;28;101781;-63
2022/01/31 11:23:39;;;;;;;21.52;8.55;;;;;;;21.48;44.35;99503.94;20496392;28;102722;-63
2022/01/31 11:33:49;;;;;;;17.40;8.73;;;;;;;21.59;49.02;99482.75;20506784;28;98430;-64
2022/01/31 11:44:06;;;;;;;21.50;9.95;;;;;;;21.65;47.78;99443.63;20544671;28;100605;-63
2022/01/31 11:54:23;;;;;;;21.95;11.07;;;;;;;21.72;50.05;99437.63;20541843;28;98809;-64
2022/01/31 12:04:51;;;;;;;21.33;10.82;;;;;;;21.75;50.04;99405.72;20543766;27;97446;-62
2022/01/31 12:25:52;;;;;;;23.17;11.35;;;;;;;21.73;47.00;99431.38;20542149;28;100884;-62
2022/01/31 12:47:18;;;;;;;16.02;9.93;;;;;;;;;;20489179;28;100086;-62
2022/01/31 12:57:19;;;;;;;17.98;8.13;;;;;;;21.65;44.07;99364.59;20526798;28;102358;-62
2022/01/31 13:07:31;;;;;;;17.27;8.05;;;;;;;21.64;43.56;99353.22;20463950;28;99546;-62
2022/01/31 13:17:32;;;;;;;13.27;7.50;;;;;;;21.65;44.14;99332.97;20502313;28;100952;-63
2022/01/31 13:28:03;;;;;;;15.40;7.93;;;;;;;21.66;44.63;99327.56;20500408;28;97676;-62
2022/01/31 13:38:29;;;;;;;11.93;7.07;;;;;;;21.68;44.17;99301.03;20503928;28;103298;-61
2022/01/31 13:59:11;;;;;;;19.92;6.93;;;;;;;21.70;43.55;99273.59;20493857;28;98992;-63
2022/01/31 14:09:54;;;;;;;13.90;7.03;;;;;;;21.68;43.59;99269.44;20482609;28;101192;-64
2022/01/31 14:20:19;;;;;;;11.57;5.78;;;;;;;21.68;43.42;99279.97;20533270;28;99279;-63
2022/01/31 14:30:54;;;;;;;12.90;5.57;;;;;;;21.67;43.83;99273.06;20502093;28;98684;-62
2022/01/31 14:51:43;;;;;;;29.83;8.02;;;;;;;21.68;43.94;99248.34;20531289;28;97642;-62
2022/01/31 15:02:21;;;;;;;28.30;9.27;;;;;;;21.67;44.46;99263.34;20492126;28;99504;-63
2022/01/31 15:12:44;;;;;;;28.50;7.75;;;;;;;21.65;44.52;99254.75;20517282;28;98200;-63
2022/01/31 15:22:54;;;;;;;;;;;;;;;21.66;45.03;99245.06;20519598;28;98266;-62
2022/01/31 15:33:18;;;;;;;20.92;7.35;;;;;;;21.61;44.54;99253.41;20538332;28;99030;-63
2022/01/31 15:43:57;;;;;;;17.40;6.90;;;;;;;21.58;44.02;99256.31;20526155;28;101357;-62
2022/01/31 15:54:32;;;;;;;13.38;6.15;;;;;;;21.56;43.00;99258.28;20519021;28;99038;-63
2022/01/31 16:05:21;;;;;;;16.27;6.40;;;;;;;21.56;43.92;99264.38;20537194;28;101770;-63
2022/01/31 16:16:00;;;;;;;15.45;5.78;;;;;;;21.55;43.33;99264.50;20555567;28;99334;-62
2022/01/31 16:26:04;;;;;;;16.02;5.80;;;;;;;21.52;43.17;99265.63;20505759;28;97647;-63
2022/01/31 16:36:30;;;;;;;11.45;5.60;;;;;;;21.53;43.86;99274.34;20516601;28;98253;-63
2022/01/31 16:47:03;;;;;;;19.13;4.93;;;;;;;21.49;43.90;99270.38;20494360;28;99688;-63
2022/01/31 17:08:19;;;;;;;16.40;4.40;;;;;;;21.48;44.14;99260.81;20503230;28;99066;-61
2022/01/31 17:18:58;;;;;;;18.17;5.28;;;;;;;21.50;44.10;99232.53;20505269;28;97628;-62
2022/01/31 17:29:35;;;;;;;17.00;7.07;;;;;;;21.51;44.72;99235.00;20487776;28;99765;-62
2022/01/31 17:40:08;;;;;;;22.13;9.60;;;;;;;21.51;45.11;99242.91;20531912;28;98440;-62
2022/01/31 17:50:53;;;;;;;27.38;14.15;;;;;;;21.53;45.22;99234.84;20544556;28;97375;-62
2022/01/31 18:01:18;;;;;;;20.95;13.23;;;;;;;21.53;45.20;99217.25;20545916;28;99303;-62
2022/01/31 18:12:02;;;;;;;20.80;11.27;;;;;;;21.53;43.79;99221.69;20536444;28;97946;-62
2022/01/31 18:22:02;;;;;;;23.95;11.30;;;;;;;21.51;43.67;99231.56;20549190;28;97374;-63
2022/01/31 18:32:57;;;;;;;17.67;10.70;;;;;;;21.50;44.36;99233.34;20541208;28;98321;-62
2022/01/31 18:43:17;;;;;;;18.15;10.45;;;;;;;21.49;44.57;99234.31;20535613;27;100667;-61
2022/01/31 18:53:54;;;;;;;15.88;10.35;;;;;;;21.50;44.51;99232.53;20545351;28;100613;-62
2022/01/31 19:04:33;;;;;;;14.82;9.30;;;;;;;21.49;44.34;99230.88;20535498;28;98445;-61
2022/01/31 19:25:26;;;;;;;13.45;8.30;;;;;;;21.43;44.80;99238.41;20527468;28;97964;-62
2022/01/31 19:35:31;;;;;;;14.32;5.43;;;;;;;17.73;25.37;99239.28;20548892;28;100414;-61
2022/01/31 19:46:00;;;;;;;12.13;4.57;;;;;;;19.55;29.93;99235.47;20558033;28;100896;-61
2022/01/31 19:56:51;;;;;;;9.45;4.65;;;;;;;20.10;35.54;99242.84;20535935;28;100505;-62
2022/01/31 20:07:25;;;;;;;11.07;4.35;;;;;;;20.43;37.64;99263.53;20552117;28;102242;-62
2022/01/31 20:17:51;;;;;;;17.63;4.72;;;;;;;20.56;38.59;99258.00;20549968;28;101121;-62
